Flight Track Log - Related Links

Times and Time Zones

All times are in EDT time to prevent confusion due to time zone crossing. See the UAL1444 flight status page for this flight to view local times or setup timezone preferences in your user account.


Time Position Orientation Groundspeed Altitude Reporting Facility
EDT Latitude Longitude Course Direction KTS MPH feet Rate Location/Type
Fri 04:43:26 PM 47.6514 -117.4756 134° Southeast 185 213 4,500  Level Seattle Center
Fri 04:44:27 PM 47.6092 -117.4044 131° Southeast 251 289 7,300 3,000 Climbing Seattle Center
Fri 04:45:00 PM 47.3745 -117.3450 135° Southeast  Level FlightAware Approximate
Fri 04:45:28 PM 47.5506 -117.3253 138° Southeast 286 329 10,600  Level Seattle Center
Fri 04:46:00 PM 47.2921 -117.2266 136° Southeast  Level FlightAware Approximate
Fri 04:46:29 PM 47.4700 -117.2139 137° Southeast 377 434 12,800  Level Seattle Center
Fri 04:47:00 PM 47.2055 -117.1161 134° Southeast  Level FlightAware Approximate
Fri 04:47:30 PM 47.3889 -117.1033 137° Southeast 396 456 15,800  Level Seattle Center
Fri 04:48:00 PM 47.1262 -116.9936 134° Southeast  Level FlightAware Approximate
Fri 04:48:31 PM 47.3161 -117.0061 138° Southeast 414 476 18,100  Level Seattle Center
Fri 04:49:32 PM 47.2272 -116.8878 138° Southeast 430 495 20,500 2,557 Climbing Seattle Center
Fri 04:50:33 PM 47.1158 -116.7375 137° Southeast 453 521 23,300 2,410 Climbing Seattle Center
Fri 04:51:34 PM 47.0206 -116.6097 138° Southeast 465 535 25,400 1,918 Climbing Seattle Center
Fri 04:52:35 PM 46.9219 -116.4781 138° Southeast 477 549 27,200 2,016 Climbing Seattle Center
Fri 04:53:36 PM 46.8381 -116.3283 129° Southeast 476 548 29,500 2,115 Climbing Seattle Center
Fri 04:54:37 PM 46.7550 -116.1825 130° Southeast 471 542 31,500 1,820 Climbing Seattle Center
Fri 04:55:38 PM 46.6706 -116.0392 131° Southeast 469 540 33,200 1,525 Climbing Seattle Center
Fri 04:56:39 PM 46.5850 -115.8964 131° Southeast 469 540 34,600 1,328 Climbing Seattle Center
Fri 04:57:40 PM 46.5000 -115.7514 130° Southeast 472 543 35,900 1,180 Climbing Seattle Center
Fri 04:58:41 PM 46.4136 -115.6086 131° Southeast 474 545 37,000 541 Climbing Seattle Center
Fri 04:59:42 PM 46.3272 -115.4639 131° Southeast 475 547 37,000  Level Seattle Center
Fri 05:00:43 PM 46.2408 -115.3217 131° Southeast 474 545 37,000  Level Seattle Center
Fri 05:01:44 PM 46.1369 -115.1511 131° Southeast 473 544 37,000  Level Seattle Center
Fri 05:02:45 PM 46.0506 -115.0089 131° Southeast 472 543 37,000 -49 Level Seattle Center
Fri 05:03:46 PM 45.9639 -114.8678 131° Southeast 472 543 36,900 -49 Descending Seattle Center
Fri 05:04:47 PM 45.8775 -114.7269 131° Southeast 469 540 36,900 49 Level Seattle Center
Fri 05:05:48 PM 45.7906 -114.5881 132° Southeast 471 542 37,000 49 Climbing Seattle Center
Fri 05:06:49 PM 45.7044 -114.4511 132° Southeast 466 536 37,000  Level Seattle Center
Fri 05:07:50 PM 45.6194 -114.3114 131° Southeast 466 536 37,000  Level Seattle Center
Fri 05:08:51 PM 45.5308 -114.1728 132° Southeast 462 532 37,000  Level Seattle Center
Fri 05:09:52 PM 45.4350 -114.0217 132° Southeast 460 529 37,000  Level Seattle Center
Fri 05:10:54 PM 45.3597 -113.9061 133° Southeast 458 527 37,000  Level Seattle Center
Fri 05:11:55 PM 45.2706 -113.7647 132° Southeast 457 526 37,000  Level Seattle Center
Fri 05:13:08 PM 45.1558 -113.5853 132° Southeast 454 522 37,000  Level Salt Lake Center
Fri 05:14:10 PM 45.0733 -113.4589 133° Southeast 456 525 37,000  Level Salt Lake Center
Fri 05:15:11 PM 44.9928 -113.3317 132° Southeast 455 524 37,000  Level Salt Lake Center
Fri 05:16:13 PM 44.8961 -113.1864 133° Southeast 455 524 37,000  Level Salt Lake Center
Fri 05:17:14 PM 44.8147 -113.0617 133° Southeast 453 521 37,000  Level Salt Lake Center
Fri 05:18:16 PM 44.7197 -112.9172 133° Southeast 451 519 37,000  Level Salt Lake Center
Fri 05:19:18 PM 44.6361 -112.7919 133° Southeast 457 526 37,000  Level Salt Lake Center
Fri 05:20:19 PM 44.5403 -112.6481 133° Southeast 455 524 37,000  Level Salt Lake Center
Fri 05:21:21 PM 44.4572 -112.5214 133° Southeast 460 529 37,000  Level Salt Lake Center
Fri 05:22:23 PM 44.3742 -112.3981 133° Southeast 458 527 37,000  Level Salt Lake Center
Fri 05:23:25 PM 44.2767 -112.2533 133° Southeast 459 528 37,000  Level Salt Lake Center
Fri 05:24:26 PM 44.1919 -112.1278 133° Southeast 464 534 37,000  Level Salt Lake Center
Fri 05:25:28 PM 44.0944 -111.9858 134° Southeast 458 527 37,000  Level Salt Lake Center
Fri 05:26:30 PM 44.0097 -111.8608 133° Southeast 465 535 37,000  Level Salt Lake Center
Fri 05:27:32 PM 43.9100 -111.7161 134° Southeast 466 536 37,000  Level Salt Lake Center
Fri 05:28:33 PM 43.8239 -111.5928 134° Southeast 468 539 37,000  Level Salt Lake Center
Fri 05:29:35 PM 43.7239 -111.4467 133° Southeast 469 540 37,000  Level Salt Lake Center
Fri 05:30:37 PM 43.6367 -111.3239 134° Southeast 469 540 37,000  Level Salt Lake Center
Fri 05:31:39 PM 43.5358 -111.1800 134° Southeast 469 540 37,000  Level Salt Lake Center
Fri 05:32:40 PM 43.4486 -111.0544 134° Southeast 474 545 37,000  Level Salt Lake Center
Fri 05:33:42 PM 43.3458 -110.9111 135° Southeast 473 544 37,000  Level Salt Lake Center
Fri 05:34:44 PM 43.2589 -110.7875 134° Southeast 470 541 37,000  Level Salt Lake Center
Fri 05:35:46 PM 43.1717 -110.6631 134° Southeast 473 544 37,000  Level Salt Lake Center
Fri 05:36:48 PM 43.0678 -110.5247 136° Southeast 467 537 37,000  Level Salt Lake Center
Fri 05:37:49 PM 42.9728 -110.3917 134° Southeast 471 542 37,000  Level Salt Lake Center
Fri 05:38:51 PM 42.8847 -110.2706 135° Southeast 470 541 37,000  Level Salt Lake Center
Fri 05:39:53 PM 42.7894 -110.1397 135° Southeast 471 542 37,000  Level Salt Lake Center
Fri 05:40:55 PM 42.6939 -110.0092 135° Southeast 471 542 37,000  Level Salt Lake Center
Fri 05:41:57 PM 42.5908 -109.8681 135° Southeast 470 541 37,000  Level Salt Lake Center
Fri 05:42:58 PM 42.5019 -109.7469 135° Southeast 473 544 37,000  Level Salt Lake Center
Fri 05:44:00 PM 42.4114 -109.6253 135° Southeast 478 550 37,000  Level Salt Lake Center
Fri 05:45:02 PM 42.3058 -109.4842 135° Southeast 477 549 37,000  Level Salt Lake Center
Fri 05:46:04 PM 42.2153 -109.3611 135° Southeast 481 554 37,000  Level Salt Lake Center
Fri 05:47:05 PM 42.1086 -109.2192 135° Southeast 482 555 37,000  Level Salt Lake Center
Fri 05:48:07 PM 42.0164 -109.0969 135° Southeast 483 556 37,000  Level Salt Lake Center
Fri 05:49:09 PM 41.9083 -108.9528 135° Southeast 486 559 37,000  Level Salt Lake Center
Fri 05:50:11 PM 41.8147 -108.8308 136° Southeast 487 560 37,000  Level Salt Lake Center
Fri 05:51:12 PM 41.7219 -108.7083 135° Southeast 487 560 37,000  Level Salt Lake Center
Fri 05:52:14 PM 41.6122 -108.5650 136° Southeast 489 563 37,000  Level Salt Lake Center
Fri 05:53:16 PM 41.5336 -108.4247 127° Southeast 494 568 37,000  Level Salt Lake Center
Fri 05:54:17 PM 41.4628 -108.2406 117° Southeast 500 575 37,000  Level Salt Lake Center
Fri 05:55:19 PM 41.4022 -108.0836 117° Southeast 498 573 37,000  Level Salt Lake Center
Fri 05:56:21 PM 41.3425 -107.9242 116° Southeast 501 577 37,000  Level Salt Lake Center
Fri 05:57:22 PM 41.2719 -107.7411 117° Southeast 501 577 37,000  Level Salt Lake Center
Fri 05:57:37 PM 41.2619 -107.7133 116° Southeast 499 574 37,000  Level Denver Center
Fri 05:58:39 PM 41.1914 -107.5306 117° Southeast 499 574 37,000  Level Denver Center
Fri 05:59:42 PM 41.1319 -107.3736 117° Southeast 498 573 37,000  Level Denver Center
Fri 06:00:43 PM 41.0600 -107.1908 118° Southeast 499 574 37,000  Level Denver Center
Fri 06:01:45 PM 40.9992 -107.0339 117° Southeast 501 577 37,000 -532 Level Denver Center
Fri 06:02:47 PM 40.9275 -106.8511 117° Southeast 502 578 35,900 -968 Descending Denver Center
Fri 06:03:49 PM 40.8650 -106.6939 118° Southeast 504 580 35,000 -968 Descending Denver Center
Fri 06:04:51 PM 40.7914 -106.5083 118° Southeast 510 587 33,900 -1,500 Descending Denver Center
Fri 06:05:53 PM 40.7233 -106.3381 118° Southeast 512 589 31,900 -2,661 Descending Denver Center
Fri 06:06:55 PM 40.6594 -106.1792 118° Southeast 512 589 28,400 -3,097 Descending Denver Center
Fri 06:07:57 PM 40.5939 -106.0175 118° Southeast 505 581 25,500 -2,177 Descending Denver Center
Fri 06:08:59 PM 40.5511 -105.8886 114° Southeast 463 533 23,900 -2,177 Descending Denver Center
Fri 06:10:01 PM 40.5408 -105.6861 94° East 412 474 21,000 -2,081 Descending Denver Center
Fri 06:11:03 PM 40.4686 -105.5908 135° Southeast 410 472 19,600 -1,258 Descending Denver Center
Fri 06:12:05 PM 40.3728 -105.6433 203° Southwest 379 436 18,400 -823 Descending Denver Center
Fri 06:13:07 PM 40.2731 -105.6686 191° South 383 441 17,900 -581 Descending Denver Center
Fri 06:14:09 PM 40.2206 -105.5619 123° Southeast 365 420 17,200 -435 Descending Denver Center
Fri 06:15:11 PM 40.2319 -105.4306 83° East 343 395 17,000 -88 Descending Denver Center
Fri 06:16:25 PM 40.2400 -105.3031 85° East 327 376 17,000 -706 Level Denver Center
Fri 06:17:27 PM 40.2494 -105.1844 84° East 328 377 15,400 -1,500 Descending Denver Center
Fri 06:18:29 PM 40.1858 -105.1197 142° Southeast 314 361 13,900 -1,161 Descending Denver Center
Fri 06:19:31 PM 40.0944 -105.1283 184° South 306 352 13,000 -629 Descending Denver Center
Fri 06:20:33 PM 40.0044 -105.1358 184° South 269 310 12,600 -726 Descending Denver Center
Fri 06:21:35 PM 39.9347 -105.1239 173° South 261 300 11,500 -1,065 Descending Denver Center
Fri 06:22:37 PM 39.9022 -105.0336 115° Southeast 253 291 10,400 -1,016 Descending Denver Center
Fri 06:23:39 PM 39.8767 -104.9503 112° Southeast 249 287 9,400 -1,152 Descending Denver Center
Fri 06:24:42 PM 39.8533 -104.8731 111° Southeast 218 251 8,000 -1,258 Descending Denver Center
Fri 06:25:43 PM 39.8408 -104.8128 105° East 169 194 6,800 -1,180 Descending Denver Center

Login

Don't have an account? Register now (free) for customized features, flight alerts, and more!